sensor_id;sensor_type;location;lat;lon;timestamp;pressure;altitude;pressure_sealevel;temperature;humidity
42601;BME280;28229;48.856;9.088;2023-05-07T00:00:47;97848.81;;;13.25;86.95
42601;BME280;28229;48.856;9.088;2023-05-07T00:03:13;97849.84;;;13.24;87.41
42601;BME280;28229;48.856;9.088;2023-05-07T00:05:39;97849.03;;;13.23;87.60
42601;BME280;28229;48.856;9.088;2023-05-07T00:08:06;97854.44;;;13.17;87.88
42601;BME280;28229;48.856;9.088;2023-05-07T00:10:32;97848.38;;;13.16;88.23
42601;BME280;28229;48.856;9.088;2023-05-07T00:12:58;97858.94;;;13.16;88.48
42601;BME280;28229;48.856;9.088;2023-05-07T00:15:24;97856.53;;;13.14;88.62
42601;BME280;28229;48.856;9.088;2023-05-07T00:17:50;97852.44;;;13.07;88.41
42601;BME280;28229;48.856;9.088;2023-05-07T00:20:16;97847.84;;;13.02;89.06
42601;BME280;28229;48.856;9.088;2023-05-07T00:22:42;97852.22;;;12.97;89.62
42601;BME280;28229;48.856;9.088;2023-05-07T00:25:09;97841.09;;;12.94;90.34
42601;BME280;28229;48.856;9.088;2023-05-07T00:27:36;97836.84;;;12.93;90.36
42601;BME280;28229;48.856;9.088;2023-05-07T00:30:02;97842.03;;;12.88;90.21
42601;BME280;28229;48.856;9.088;2023-05-07T00:32:29;97837.91;;;12.92;89.65
42601;BME280;28229;48.856;9.088;2023-05-07T00:34:55;97832.13;;;12.95;89.00
42601;BME280;28229;48.856;9.088;2023-05-07T00:37:21;97836.28;;;12.91;89.41
42601;BME280;28229;48.856;9.088;2023-05-07T00:39:47;97834.00;;;12.83;89.99
42601;BME280;28229;48.856;9.088;2023-05-07T00:42:14;97839.38;;;12.88;90.16
42601;BME280;28229;48.856;9.088;2023-05-07T00:44:40;97829.66;;;12.77;90.71
42601;BME280;28229;48.856;9.088;2023-05-07T00:47:07;97833.66;;;12.80;91.13
42601;BME280;28229;48.856;9.088;2023-05-07T00:49:42;97821.19;;;12.75;91.14
42601;BME280;28229;48.856;9.088;2023-05-07T00:52:15;97824.84;;;12.74;91.13
42601;BME280;28229;48.856;9.088;2023-05-07T00:54:42;97826.94;;;12.72;91.41
42601;BME280;28229;48.856;9.088;2023-05-07T00:57:11;97825.56;;;12.69;91.67
42601;BME280;28229;48.856;9.088;2023-05-07T00:59:37;97823.72;;;12.70;91.84
42601;BME280;28229;48.856;9.088;2023-05-07T01:02:04;97818.34;;;12.65;92.20
42601;BME280;28229;48.856;9.088;2023-05-07T01:04:30;97820.63;;;12.61;92.31
42601;BME280;28229;48.856;9.088;2023-05-07T01:06:57;97823.50;;;12.60;92.29
42601;BME280;28229;48.856;9.088;2023-05-07T01:09:25;97825.91;;;12.61;92.14
42601;BME280;28229;48.856;9.088;2023-05-07T01:11:52;97827.19;;;12.59;92.17
42601;BME280;28229;48.856;9.088;2023-05-07T01:14:18;97825.03;;;12.55;92.45
42601;BME280;28229;48.856;9.088;2023-05-07T01:16:47;97822.38;;;12.55;92.94
42601;BME280;28229;48.856;9.088;2023-05-07T01:19:16;97818.00;;;12.49;93.09
42601;BME280;28229;48.856;9.088;2023-05-07T01:21:46;97821.13;;;12.46;92.91
42601;BME280;28229;48.856;9.088;2023-05-07T01:24:14;97830.78;;;12.41;92.66
42601;BME280;28229;48.856;9.088;2023-05-07T01:26:43;97819.41;;;12.40;92.68
42601;BME280;28229;48.856;9.088;2023-05-07T01:29:10;97824.69;;;12.40;92.38
42601;BME280;28229;48.856;9.088;2023-05-07T01:31:37;97825.13;;;12.37;92.93
42601;BME280;28229;48.856;9.088;2023-05-07T01:34:04;97822.28;;;12.38;92.63
42601;BME280;28229;48.856;9.088;2023-05-07T01:36:33;97828.03;;;12.35;92.37
42601;BME280;28229;48.856;9.088;2023-05-07T01:39:02;97818.28;;;12.36;92.44
42601;BME280;28229;48.856;9.088;2023-05-07T01:41:28;97818.72;;;12.33;92.81
42601;BME280;28229;48.856;9.088;2023-05-07T01:43:56;97816.88;;;12.33;92.99
42601;BME280;28229;48.856;9.088;2023-05-07T01:46:24;97817.13;;;12.32;93.16
42601;BME280;28229;48.856;9.088;2023-05-07T01:48:52;97820.81;;;12.31;92.75
42601;BME280;28229;48.856;9.088;2023-05-07T01:51:18;97817.25;;;12.25;93.14
42601;BME280;28229;48.856;9.088;2023-05-07T01:53:46;97816.91;;;12.22;93.43
42601;BME280;28229;48.856;9.088;2023-05-07T01:56:17;97819.31;;;12.23;93.69
42601;BME280;28229;48.856;9.088;2023-05-07T01:58:45;97819.09;;;12.25;93.40
42601;BME280;28229;48.856;9.088;2023-05-07T02:01:13;97827.00;;;12.25;94.05
42601;BME280;28229;48.856;9.088;2023-05-07T02:03:39;97819.31;;;12.23;94.01
42601;BME280;28229;48.856;9.088;2023-05-07T02:06:13;97815.41;;;12.26;94.47
42601;BME280;28229;48.856;9.088;2023-05-07T02:08:40;97818.84;;;12.26;94.44
42601;BME280;28229;48.856;9.088;2023-05-07T02:11:06;97823.31;;;12.26;94.01
42601;BME280;28229;48.856;9.088;2023-05-07T02:13:33;97821.63;;;12.19;93.36
42601;BME280;28229;48.856;9.088;2023-05-07T02:16:01;97819.22;;;12.18;92.76
42601;BME280;28229;48.856;9.088;2023-05-07T02:18:28;97817.38;;;12.18;92.92
42601;BME280;28229;48.856;9.088;2023-05-07T02:20:54;97816.56;;;12.18;93.13
42601;BME280;28229;48.856;9.088;2023-05-07T02:23:20;97827.22;;;12.11;93.63
42601;BME280;28229;48.856;9.088;2023-05-07T02:25:47;97823.34;;;12.14;93.65
42601;BME280;28229;48.856;9.088;2023-05-07T02:28:13;97821.94;;;12.11;93.72
42601;BME280;28229;48.856;9.088;2023-05-07T02:30:49;97825.38;;;12.12;93.96
42601;BME280;28229;48.856;9.088;2023-05-07T02:33:15;97822.75;;;12.12;93.83
42601;BME280;28229;48.856;9.088;2023-05-07T02:35:42;97821.94;;;12.11;93.84
42601;BME280;28229;48.856;9.088;2023-05-07T02:38:08;97815.09;;;12.10;93.98
42601;BME280;28229;48.856;9.088;2023-05-07T02:40:37;97818.41;;;12.06;93.92
42601;BME280;28229;48.856;9.088;2023-05-07T02:43:05;97814.50;;;12.08;94.38
42601;BME280;28229;48.856;9.088;2023-05-07T02:45:32;97823.44;;;12.07;94.60
42601;BME280;28229;48.856;9.088;2023-05-07T02:47:59;97810.28;;;12.07;93.93
42601;BME280;28229;48.856;9.088;2023-05-07T02:50:25;97812.78;;;12.02;94.80
42601;BME280;28229;48.856;9.088;2023-05-07T02:52:53;97821.72;;;12.01;94.98
42601;BME280;28229;48.856;9.088;2023-05-07T02:55:19;97810.59;;;11.99;94.77
42601;BME280;28229;48.856;9.088;2023-05-07T02:57:45;97813.59;;;11.91;95.23
42601;BME280;28229;48.856;9.088;2023-05-07T03:00:14;97813.44;;;11.86;94.76
42601;BME280;28229;48.856;9.088;2023-05-07T03:02:45;97809.63;;;11.81;95.18
42601;BME280;28229;48.856;9.088;2023-05-07T03:05:11;97808.50;;;11.77;95.10
42601;BME280;28229;48.856;9.088;2023-05-07T03:07:38;97810.78;;;11.74;95.72
42601;BME280;28229;48.856;9.088;2023-05-07T03:10:05;97795.19;;;11.72;95.85
42601;BME280;28229;48.856;9.088;2023-05-07T03:12:31;97789.47;;;11.75;95.92
42601;BME280;28229;48.856;9.088;2023-05-07T03:14:58;97798.28;;;11.69;95.98
42601;BME280;28229;48.856;9.088;2023-05-07T03:17:24;97793.47;;;11.66;96.27
42601;BME280;28229;48.856;9.088;2023-05-07T03:19:52;97790.94;;;11.59;95.97
42601;BME280;28229;48.856;9.088;2023-05-07T03:22:19;97789.09;;;11.60;95.91
42601;BME280;28229;48.856;9.088;2023-05-07T03:24:46;97796.53;;;11.51;95.99
42601;BME280;28229;48.856;9.088;2023-05-07T03:27:12;97790.03;;;11.54;95.89
42601;BME280;28229;48.856;9.088;2023-05-07T03:29:38;97791.63;;;11.55;96.28
42601;BME280;28229;48.856;9.088;2023-05-07T03:32:04;97785.66;;;11.48;96.51
42601;BME280;28229;48.856;9.088;2023-05-07T03:34:32;97794.38;;;11.48;96.25
42601;BME280;28229;48.856;9.088;2023-05-07T03:36:58;97792.41;;;11.43;96.92
42601;BME280;28229;48.856;9.088;2023-05-07T03:39:25;97789.63;;;11.38;97.38
42601;BME280;28229;48.856;9.088;2023-05-07T03:41:51;97780.81;;;11.33;97.72
42601;BME280;28229;48.856;9.088;2023-05-07T03:44:19;97791.13;;;11.34;97.27
42601;BME280;28229;48.856;9.088;2023-05-07T03:46:46;97793.19;;;11.32;97.73
42601;BME280;28229;48.856;9.088;2023-05-07T03:49:12;97792.00;;;11.28;98.01
42601;BME280;28229;48.856;9.088;2023-05-07T03:51:38;97796.84;;;11.31;97.43
42601;BME280;28229;48.856;9.088;2023-05-07T03:56:36;97800.97;;;11.27;96.97
42601;BME280;28229;48.856;9.088;2023-05-07T03:59:02;97803.81;;;11.26;96.94
42601;BME280;28229;48.856;9.088;2023-05-07T04:01:29;97802.66;;;11.21;97.46
42601;BME280;28229;48.856;9.088;2023-05-07T04:03:56;97803.03;;;11.25;97.26
42601;BME280;28229;48.856;9.088;2023-05-07T04:06:24;97799.81;;;11.23;97.66
42601;BME280;28229;48.856;9.088;2023-05-07T04:08:50;97800.03;;;11.21;97.84
42601;BME280;28229;48.856;9.088;2023-05-07T04:11:17;97809.16;;;11.19;97.89
42601;BME280;28229;48.856;9.088;2023-05-07T04:13:44;97805.97;;;11.17;97.74
42601;BME280;28229;48.856;9.088;2023-05-07T04:16:10;97811.31;;;11.10;97.61
42601;BME280;28229;48.856;9.088;2023-05-07T04:18:38;97810.88;;;11.13;98.11
42601;BME280;28229;48.856;9.088;2023-05-07T04:21:05;97818.31;;;11.16;97.99
42601;BME280;28229;48.856;9.088;2023-05-07T04:23:32;97817.53;;;11.16;98.02
42601;BME280;28229;48.856;9.088;2023-05-07T04:26:02;97816.84;;;11.20;98.52
42601;BME280;28229;48.856;9.088;2023-05-07T04:28:34;97820.53;;;11.19;98.38
42601;BME280;28229;48.856;9.088;2023-05-07T04:31:01;97827.59;;;11.19;98.24
42601;BME280;28229;48.856;9.088;2023-05-07T04:33:32;97820.75;;;11.18;98.62
42601;BME280;28229;48.856;9.088;2023-05-07T04:36:01;97827.81;;;11.17;98.86
42601;BME280;28229;48.856;9.088;2023-05-07T04:38:30;97825.88;;;11.13;99.21
42601;BME280;28229;48.856;9.088;2023-05-07T04:41:03;97819.69;;;11.19;99.13
42601;BME280;28229;48.856;9.088;2023-05-07T04:43:32;97825.31;;;11.22;98.98
42601;BME280;28229;48.856;9.088;2023-05-07T04:45:59;97834.16;;;11.28;98.99
42601;BME280;28229;48.856;9.088;2023-05-07T04:48:27;97834.16;;;11.28;99.91
42601;BME280;28229;48.856;9.088;2023-05-07T04:50:56;97835.31;;;11.32;99.93
42601;BME280;28229;48.856;9.088;2023-05-07T04:53:23;97842.19;;;11.33;99.90
42601;BME280;28229;48.856;9.088;2023-05-07T04:55:59;97846.56;;;11.39;100.00
42601;BME280;28229;48.856;9.088;2023-05-07T04:58:32;97840.13;;;11.35;100.00
42601;BME280;28229;48.856;9.088;2023-05-07T05:00:59;97844.94;;;11.38;100.00
42601;BME280;28229;48.856;9.088;2023-05-07T05:03:26;97844.94;;;11.38;100.00
42601;BME280;28229;48.856;9.088;2023-05-07T05:05:52;97842.44;;;11.43;100.00
42601;BME280;28229;48.856;9.088;2023-05-07T05:08:20;97838.81;;;11.45;99.42
42601;BME280;28229;48.856;9.088;2023-05-07T05:10:47;97844.50;;;11.41;99.96
42601;BME280;28229;48.856;9.088;2023-05-07T05:13:14;97846.72;;;11.45;99.86
42601;BME280;28229;48.856;9.088;2023-05-07T05:15:41;97845.22;;;11.49;99.44
42601;BME280;28229;48.856;9.088;2023-05-07T05:18:08;97854.75;;;11.50;99.72
42601;BME280;28229;48.856;9.088;2023-05-07T05:20:34;97865.06;;;11.63;99.40
42601;BME280;28229;48.856;9.088;2023-05-07T05:23:00;97861.66;;;11.74;99.03
42601;BME280;28229;48.856;9.088;2023-05-07T05:25:27;97869.56;;;11.74;99.34
42601;BME280;28229;48.856;9.088;2023-05-07T05:27:54;97866.59;;;11.82;99.80
42601;BME280;28229;48.856;9.088;2023-05-07T05:30:21;97858.81;;;11.88;100.00
42601;BME280;28229;48.856;9.088;2023-05-07T05:32:47;97862.75;;;11.97;100.00
42601;BME280;28229;48.856;9.088;2023-05-07T05:35:14;97861.28;;;12.13;100.00
42601;BME280;28229;48.856;9.088;2023-05-07T05:37:41;97862.56;;;12.34;100.00
42601;BME280;28229;48.856;9.088;2023-05-07T05:40:08;97863.22;;;12.53;98.61
42601;BME280;28229;48.856;9.088;2023-05-07T05:42:38;97867.19;;;12.67;97.15
42601;BME280;28229;48.856;9.088;2023-05-07T05:45:05;97876.41;;;12.76;94.11
42601;BME280;28229;48.856;9.088;2023-05-07T05:47:33;97865.69;;;12.83;94.67
42601;BME280;28229;48.856;9.088;2023-05-07T05:50:03;97867.03;;;12.98;92.85
42601;BME280;28229;48.856;9.088;2023-05-07T05:52:30;97865.75;;;13.12;92.44
42601;BME280;28229;48.856;9.088;2023-05-07T05:54:57;97863.50;;;13.32;88.52
42601;BME280;28229;48.856;9.088;2023-05-07T05:57:26;97870.41;;;13.50;87.01
42601;BME280;28229;48.856;9.088;2023-05-07T05:59:53;97871.72;;;13.65;87.08
42601;BME280;28229;48.856;9.088;2023-05-07T06:02:23;97872.13;;;13.74;86.39
42601;BME280;28229;48.856;9.088;2023-05-07T06:04:49;97867.41;;;13.76;86.24
42601;BME280;28229;48.856;9.088;2023-05-07T06:07:19;97864.84;;;13.81;85.54
42601;BME280;28229;48.856;9.088;2023-05-07T06:09:46;97860.69;;;13.85;85.47
42601;BME280;28229;48.856;9.088;2023-05-07T06:12:13;97874.81;;;13.90;85.40
42601;BME280;28229;48.856;9.088;2023-05-07T06:14:40;97886.28;;;13.96;84.36
42601;BME280;28229;48.856;9.088;2023-05-07T06:17:08;97876.88;;;14.05;84.73
42601;BME280;28229;48.856;9.088;2023-05-07T06:19:35;97872.56;;;14.16;84.41
42601;BME280;28229;48.856;9.088;2023-05-07T06:22:03;97880.97;;;14.30;82.99
42601;BME280;28229;48.856;9.088;2023-05-07T06:24:32;97882.94;;;14.40;82.86
42601;BME280;28229;48.856;9.088;2023-05-07T06:26:58;97885.69;;;14.62;83.62
42601;BME280;28229;48.856;9.088;2023-05-07T06:29:26;97886.09;;;14.76;83.57
42601;BME280;28229;48.856;9.088;2023-05-07T06:31:53;97884.16;;;14.88;84.88
42601;BME280;28229;48.856;9.088;2023-05-07T06:34:21;97883.91;;;15.12;82.68
42601;BME280;28229;48.856;9.088;2023-05-07T06:36:47;97892.88;;;15.33;80.54
42601;BME280;28229;48.856;9.088;2023-05-07T06:39:37;97894.66;;;15.49;77.57
42601;BME280;28229;48.856;9.088;2023-05-07T06:42:03;97883.19;;;15.71;75.85
42601;BME280;28229;48.856;9.088;2023-05-07T06:44:32;97886.00;;;15.86;75.38
42601;BME280;28229;48.856;9.088;2023-05-07T06:47:07;97889.03;;;16.00;74.27
42601;BME280;28229;48.856;9.088;2023-05-07T06:49:34;97885.91;;;16.08;73.31
42601;BME280;28229;48.856;9.088;2023-05-07T06:52:01;97871.94;;;16.23;73.23
42601;BME280;28229;48.856;9.088;2023-05-07T06:54:27;97870.47;;;16.43;72.87
42601;BME280;28229;48.856;9.088;2023-05-07T06:56:53;97875.34;;;16.56;71.73
42601;BME280;28229;48.856;9.088;2023-05-07T06:59:22;97875.44;;;16.77;71.24
42601;BME280;28229;48.856;9.088;2023-05-07T07:01:49;97880.88;;;16.92;69.00
42601;BME280;28229;48.856;9.088;2023-05-07T07:04:15;97882.97;;;16.95;69.05
42601;BME280;28229;48.856;9.088;2023-05-07T07:06:44;97879.34;;;17.11;69.18
42601;BME280;28229;48.856;9.088;2023-05-07T07:09:13;97881.22;;;17.21;68.31
42601;BME280;28229;48.856;9.088;2023-05-07T07:11:40;97870.09;;;17.29;68.22
42601;BME280;28229;48.856;9.088;2023-05-07T07:14:07;97864.25;;;17.43;67.26
42601;BME280;28229;48.856;9.088;2023-05-07T07:16:39;97871.19;;;17.59;66.43
42601;BME280;28229;48.856;9.088;2023-05-07T07:19:05;97864.03;;;17.80;65.60
42601;BME280;28229;48.856;9.088;2023-05-07T07:21:32;97859.25;;;17.72;63.22
42601;BME280;28229;48.856;9.088;2023-05-07T07:23:58;97860.84;;;17.78;62.95
42601;BME280;28229;48.856;9.088;2023-05-07T07:26:26;97862.97;;;17.71;63.02
42601;BME280;28229;48.856;9.088;2023-05-07T07:28:52;97859.78;;;17.79;63.44
42601;BME280;28229;48.856;9.088;2023-05-07T07:31:21;97866.72;;;17.85;63.64
42601;BME280;28229;48.856;9.088;2023-05-07T07:33:50;97869.41;;;18.06;62.87
42601;BME280;28229;48.856;9.088;2023-05-07T07:36:16;97871.75;;;18.28;61.14
42601;BME280;28229;48.856;9.088;2023-05-07T07:38:42;97873.06;;;18.51;61.24
42601;BME280;28229;48.856;9.088;2023-05-07T07:41:09;97877.84;;;18.49;61.67
42601;BME280;28229;48.856;9.088;2023-05-07T07:43:36;97878.88;;;18.69;61.44
42601;BME280;28229;48.856;9.088;2023-05-07T07:46:02;97876.19;;;18.79;60.15
42601;BME280;28229;48.856;9.088;2023-05-07T07:48:28;97879.91;;;18.88;59.87
42601;BME280;28229;48.856;9.088;2023-05-07T07:50:55;97888.41;;;19.00;60.22
42601;BME280;28229;48.856;9.088;2023-05-07T07:53:22;97881.41;;;19.10;59.70
42601;BME280;28229;48.856;9.088;2023-05-07T07:55:48;97884.03;;;19.25;60.16
42601;BME280;28229;48.856;9.088;2023-05-07T07:58:18;97888.19;;;19.42;59.37
42601;BME280;28229;48.856;9.088;2023-05-07T08:00:44;97880.91;;;19.57;58.11
42601;BME280;28229;48.856;9.088;2023-05-07T08:03:12;97881.38;;;19.65;58.35
42601;BME280;28229;48.856;9.088;2023-05-07T08:05:42;97886.97;;;19.73;57.67
42601;BME280;28229;48.856;9.088;2023-05-07T08:08:09;97879.75;;;19.74;56.93
42601;BME280;28229;48.856;9.088;2023-05-07T08:10:38;97883.44;;;19.78;57.29
42601;BME280;28229;48.856;9.088;2023-05-07T08:13:10;97884.22;;;19.78;57.32
42601;BME280;28229;48.856;9.088;2023-05-07T08:15:39;97892.78;;;19.81;56.26
42601;BME280;28229;48.856;9.088;2023-05-07T08:18:05;97886.88;;;19.84;56.67
42601;BME280;28229;48.856;9.088;2023-05-07T08:20:33;97889.50;;;19.89;56.45
42601;BME280;28229;48.856;9.088;2023-05-07T08:23:01;97891.63;;;19.92;56.70
42601;BME280;28229;48.856;9.088;2023-05-07T08:25:28;97883.53;;;20.02;57.24
42601;BME280;28229;48.856;9.088;2023-05-07T08:27:55;97883.97;;;20.14;57.32
42601;BME280;28229;48.856;9.088;2023-05-07T08:30:21;97883.28;;;20.28;56.98
42601;BME280;28229;48.856;9.088;2023-05-07T08:32:48;97883.06;;;20.53;56.73
42601;BME280;28229;48.856;9.088;2023-05-07T08:35:14;97880.63;;;20.81;56.02
42601;BME280;28229;48.856;9.088;2023-05-07T08:37:40;97883.59;;;21.04;54.78
42601;BME280;28229;48.856;9.088;2023-05-07T08:40:07;97882.00;;;21.22;55.00
42601;BME280;28229;48.856;9.088;2023-05-07T08:42:36;97883.88;;;21.45;53.89
42601;BME280;28229;48.856;9.088;2023-05-07T08:45:04;97878.03;;;21.19;52.09
42601;BME280;28229;48.856;9.088;2023-05-07T08:47:44;97886.34;;;21.37;52.75
42601;BME280;28229;48.856;9.088;2023-05-07T08:50:12;97894.06;;;21.62;52.41
42601;BME280;28229;48.856;9.088;2023-05-07T08:52:40;97885.59;;;21.74;51.71
42601;BME280;28229;48.856;9.088;2023-05-07T08:55:07;97889.25;;;21.97;51.01
42601;BME280;28229;48.856;9.088;2023-05-07T08:57:34;97888.50;;;22.11;50.66
42601;BME280;28229;48.856;9.088;2023-05-07T09:00:03;97881.34;;;22.39;50.33
42601;BME280;28229;48.856;9.088;2023-05-07T09:02:31;97880.97;;;22.59;49.82
42601;BME280;28229;48.856;9.088;2023-05-07T09:04:57;97889.59;;;22.70;49.14
42601;BME280;28229;48.856;9.088;2023-05-07T09:07:23;97886.94;;;22.70;49.06
42601;BME280;28229;48.856;9.088;2023-05-07T09:09:50;97884.44;;;22.88;48.36
42601;BME280;28229;48.856;9.088;2023-05-07T09:12:18;97877.50;;;23.14;48.61
42601;BME280;28229;48.856;9.088;2023-05-07T09:14:47;97883.16;;;23.49;48.63
42601;BME280;28229;48.856;9.088;2023-05-07T09:17:15;97877.94;;;23.44;46.61
42601;BME280;28229;48.856;9.088;2023-05-07T09:19:46;97870.88;;;23.71;47.34
42601;BME280;28229;48.856;9.088;2023-05-07T09:22:14;97869.94;;;23.89;46.15
42601;BME280;28229;48.856;9.088;2023-05-07T09:24:53;97871.44;;;24.04;46.12
42601;BME280;28229;48.856;9.088;2023-05-07T09:27:31;97855.50;;;24.08;45.31
42601;BME280;28229;48.856;9.088;2023-05-07T09:29:59;97868.44;;;24.06;43.86
42601;BME280;28229;48.856;9.088;2023-05-07T09:32:28;97861.09;;;24.20;44.86
42601;BME280;28229;48.856;9.088;2023-05-07T09:34:58;97866.22;;;24.30;45.01
42601;BME280;28229;48.856;9.088;2023-05-07T09:37:26;97865.34;;;24.44;44.51
42601;BME280;28229;48.856;9.088;2023-05-07T09:39:53;97858.81;;;24.67;43.73
42601;BME280;28229;48.856;9.088;2023-05-07T09:42:26;97858.09;;;24.93;44.42
42601;BME280;28229;48.856;9.088;2023-05-07T09:44:55;97855.09;;;25.03;43.30
42601;BME280;28229;48.856;9.088;2023-05-07T09:47:26;97864.78;;;25.22;42.56
42601;BME280;28229;48.856;9.088;2023-05-07T09:49:59;97858.34;;;25.49;43.47
42601;BME280;28229;48.856;9.088;2023-05-07T09:52:30;97856.75;;;25.74;44.07
42601;BME280;28229;48.856;9.088;2023-05-07T09:55:01;97853.56;;;25.81;42.24
42601;BME280;28229;48.856;9.088;2023-05-07T09:57:30;97855.31;;;25.94;41.98
42601;BME280;28229;48.856;9.088;2023-05-07T10:00:03;97860.06;;;26.06;41.17
42601;BME280;28229;48.856;9.088;2023-05-07T10:02:48;97855.44;;;26.15;39.24
42601;BME280;28229;48.856;9.088;2023-05-07T10:05:18;97852.69;;;26.33;40.31
42601;BME280;28229;48.856;9.088;2023-05-07T10:07:47;97848.16;;;26.54;40.61
42601;BME280;28229;48.856;9.088;2023-05-07T10:10:15;97841.41;;;26.78;39.46
42601;BME280;28229;48.856;9.088;2023-05-07T10:12:46;97847.63;;;27.00;38.70
42601;BME280;28229;48.856;9.088;2023-05-07T10:15:19;97840.34;;;27.21;38.40
42601;BME280;28229;48.856;9.088;2023-05-07T10:17:51;97830.63;;;27.20;38.07
42601;BME280;28229;48.856;9.088;2023-05-07T10:20:19;97837.41;;;27.35;38.05
42601;BME280;28229;48.856;9.088;2023-05-07T10:22:48;97833.03;;;27.43;37.70
42601;BME280;28229;48.856;9.088;2023-05-07T10:25:23;97828.97;;;27.37;37.73
42601;BME280;28229;48.856;9.088;2023-05-07T10:27:53;97828.16;;;27.15;37.32
42601;BME280;28229;48.856;9.088;2023-05-07T10:30:40;97828.78;;;26.91;37.96
42601;BME280;28229;48.856;9.088;2023-05-07T10:33:13;97819.59;;;26.53;37.97
42601;BME280;28229;48.856;9.088;2023-05-07T10:35:58;97827.09;;;26.48;38.59
42601;BME280;28229;48.856;9.088;2023-05-07T10:38:27;97828.72;;;26.40;39.22
42601;BME280;28229;48.856;9.088;2023-05-07T10:40:53;97822.53;;;26.31;39.27
42601;BME280;28229;48.856;9.088;2023-05-07T10:43:20;97820.97;;;26.30;39.08
42601;BME280;28229;48.856;9.088;2023-05-07T10:52:15;97827.06;;;25.92;38.19
42601;BME280;28229;48.856;9.088;2023-05-07T10:58:23;97820.75;;;25.70;39.16
42601;BME280;28229;48.856;9.088;2023-05-07T11:00:59;97822.22;;;25.59;38.47
42601;BME280;28229;48.856;9.088;2023-05-07T11:03:31;97823.16;;;25.54;39.86
42601;BME280;28229;48.856;9.088;2023-05-07T11:08:57;97829.94;;;25.17;44.03
42601;BME280;28229;48.856;9.088;2023-05-07T11:11:49;97828.47;;;24.84;46.95
42601;BME280;28229;48.856;9.088;2023-05-07T11:17:19;97825.94;;;24.88;45.63
42601;BME280;28229;48.856;9.088;2023-05-07T11:19:56;97825.16;;;24.96;44.78
42601;BME280;28229;48.856;9.088;2023-05-07T11:25:19;97819.09;;;24.64;46.81
42601;BME280;28229;48.856;9.088;2023-05-07T11:27:50;97814.44;;;24.47;46.61
42601;BME280;28229;48.856;9.088;2023-05-07T11:30:17;97811.69;;;24.39;47.61
42601;BME280;28229;48.856;9.088;2023-05-07T11:32:47;97810.88;;;24.38;47.61
42601;BME280;28229;48.856;9.088;2023-05-07T11:35:16;97809.91;;;24.25;46.91
42601;BME280;28229;48.856;9.088;2023-05-07T11:37:45;97812.22;;;24.18;47.99
42601;BME280;28229;48.856;9.088;2023-05-07T11:40:12;97812.13;;;24.01;47.19
42601;BME280;28229;48.856;9.088;2023-05-07T11:42:40;97811.78;;;23.93;47.86
42601;BME280;28229;48.856;9.088;2023-05-07T11:45:08;97810.03;;;23.89;48.22
42601;BME280;28229;48.856;9.088;2023-05-07T11:47:35;97807.69;;;23.73;48.40
42601;BME280;28229;48.856;9.088;2023-05-07T11:50:06;97816.81;;;23.64;48.75
42601;BME280;28229;48.856;9.088;2023-05-07T11:52:33;97810.88;;;23.53;48.95
42601;BME280;28229;48.856;9.088;2023-05-07T11:55:01;97808.63;;;23.46;49.09
42601;BME280;28229;48.856;9.088;2023-05-07T11:57:29;97807.63;;;23.42;49.32
42601;BME280;28229;48.856;9.088;2023-05-07T12:00:01;97832.03;;;23.54;49.87
42601;BME280;28229;48.856;9.088;2023-05-07T12:02:38;97831.81;;;23.65;49.45
42601;BME280;28229;48.856;9.088;2023-05-07T12:05:05;97830.94;;;23.55;48.82
42601;BME280;28229;48.856;9.088;2023-05-07T12:07:33;97834.84;;;23.49;49.93
42601;BME280;28229;48.856;9.088;2023-05-07T12:10:04;97834.72;;;23.32;49.50
42601;BME280;28229;48.856;9.088;2023-05-07T12:12:30;97840.75;;;23.37;48.89
42601;BME280;28229;48.856;9.088;2023-05-07T12:14:56;97829.72;;;23.39;48.63
42601;BME280;28229;48.856;9.088;2023-05-07T12:17:22;97820.25;;;23.42;49.26
42601;BME280;28229;48.856;9.088;2023-05-07T12:19:49;97827.53;;;23.41;48.61
42601;BME280;28229;48.856;9.088;2023-05-07T12:22:15;97818.88;;;23.44;47.89
42601;BME280;28229;48.856;9.088;2023-05-07T12:24:46;97820.56;;;23.40;47.55
42601;BME280;28229;48.856;9.088;2023-05-07T12:27:14;97821.56;;;23.44;47.56
42601;BME280;28229;48.856;9.088;2023-05-07T12:29:44;97832.97;;;23.50;48.96
42601;BME280;28229;48.856;9.088;2023-05-07T12:32:21;97836.75;;;22.98;52.80
42601;BME280;28229;48.856;9.088;2023-05-07T12:34:51;97839.34;;;22.34;52.07
42601;BME280;28229;48.856;9.088;2023-05-07T12:37:25;97832.16;;;21.50;54.39
42601;BME280;28229;48.856;9.088;2023-05-07T12:40:09;97839.91;;;20.89;56.56
42601;BME280;28229;48.856;9.088;2023-05-07T12:42:37;97834.88;;;20.59;57.24
42601;BME280;28229;48.856;9.088;2023-05-07T12:45:10;97839.53;;;20.24;57.67
42601;BME280;28229;48.856;9.088;2023-05-07T12:47:37;97843.41;;;20.12;58.66
42601;BME280;28229;48.856;9.088;2023-05-07T12:50:06;97859.69;;;19.71;61.39
42601;BME280;28229;48.856;9.088;2023-05-07T12:52:33;97855.34;;;19.46;63.65
42601;BME280;28229;48.856;9.088;2023-05-07T12:55:06;97864.00;;;19.28;68.16
42601;BME280;28229;48.856;9.088;2023-05-07T12:58:00;97867.81;;;19.11;71.61
42601;BME280;28229;48.856;9.088;2023-05-07T13:00:36;97863.88;;;18.98;72.70
42601;BME280;28229;48.856;9.088;2023-05-07T13:03:03;97862.31;;;18.82;70.63
42601;BME280;28229;48.856;9.088;2023-05-07T13:05:29;97864.97;;;18.92;67.31
42601;BME280;28229;48.856;9.088;2023-05-07T13:07:56;97872.44;;;18.90;62.71
42601;BME280;28229;48.856;9.088;2023-05-07T13:10:23;97861.84;;;18.64;63.31
42601;BME280;28229;48.856;9.088;2023-05-07T13:12:50;97859.72;;;18.61;62.41
42601;BME280;28229;48.856;9.088;2023-05-07T13:15:17;97858.69;;;18.47;62.85
42601;BME280;28229;48.856;9.088;2023-05-07T13:17:43;97867.22;;;18.39;63.67
42601;BME280;28229;48.856;9.088;2023-05-07T13:20:10;97865.13;;;18.31;65.83
42601;BME280;28229;48.856;9.088;2023-05-07T13:22:37;97871.78;;;18.18;65.93
42601;BME280;28229;48.856;9.088;2023-05-07T13:25:03;97871.50;;;18.09;66.90
42601;BME280;28229;48.856;9.088;2023-05-07T13:27:30;97873.13;;;18.05;65.09